createdAt,value
2022-10-12T00:04:30.680Z,290.06742
2022-10-12T00:09:32.271Z,280.61202
2022-10-12T00:14:33.894Z,271.65957
2022-10-12T00:19:35.472Z,282.46154
2022-10-12T00:24:41.975Z,227.87097
2022-10-12T00:29:44.659Z,278.78261
2022-10-12T00:34:46.458Z,302.13953
2022-10-12T00:39:48.035Z,315.08434
2022-10-12T00:44:49.634Z,263.17098
2022-10-12T00:49:51.295Z,255.11111
2022-10-12T00:54:52.933Z,247.44828
2022-10-12T00:59:54.542Z,248.9505
2022-10-12T01:04:56.151Z,250.46766
2022-10-12T01:09:57.790Z,219
2022-10-12T01:14:59.397Z,234.56604
2022-10-12T01:20:01.012Z,248.9505
2022-10-12T01:25:02.667Z,300.06936
2022-10-12T01:30:04.414Z,259.89744
2022-10-12T01:35:06.034Z,233.20188
2022-10-12T01:40:07.651Z,252
2022-10-12T01:45:09.243Z,284.33149
2022-10-12T01:50:10.892Z,261.52577
2022-10-12T01:55:12.546Z,266.51309
2022-10-12T02:00:14.196Z,253.54774
2022-10-12T02:05:15.804Z,237.33333
2022-10-12T02:10:17.461Z,286.22222
2022-10-12T02:15:19.079Z,275.1828
2022-10-12T02:20:20.903Z,255.11111
2022-10-12T02:25:22.469Z,273.41176
2022-10-12T02:30:24.086Z,250.46766
2022-10-12T02:35:25.690Z,252
2022-10-12T02:40:27.297Z,278.78261
2022-10-12T02:45:28.859Z,259.89744
2022-10-12T02:50:30.472Z,284.33149
2022-10-12T02:55:32.120Z,288.13408
2022-10-12T03:00:33.736Z,282.46154
2022-10-12T03:05:36.893Z,261.52577
2022-10-12T03:10:38.662Z,252
2022-10-12T03:15:40.280Z,282.46154
2022-10-12T03:20:41.936Z,271.65957
2022-10-12T03:25:43.551Z,255.11111
2022-10-12T03:30:45.127Z,268.21053
2022-10-12T03:35:46.795Z,268.21053
2022-10-12T03:40:48.389Z,261.52577
2022-10-12T03:45:49.975Z,253.54774
2022-10-12T03:50:51.534Z,245.96078
2022-10-12T03:55:53.082Z,240.15385
2022-10-12T04:00:54.693Z,256.69036
2022-10-12T04:05:56.257Z,258.28571
2022-10-12T04:10:57.832Z,248.9505
2022-10-12T04:15:59.428Z,252
2022-10-12T04:21:01.103Z,253.54774
2022-10-12T04:26:02.702Z,240.15385
2022-10-12T04:31:04.336Z,231.85047
2022-10-12T04:36:06.063Z,234.56604
2022-10-12T04:41:07.686Z,244.4878
2022-10-12T04:46:09.321Z,240.15385
2022-10-12T04:51:10.899Z,234.56604
2022-10-12T04:56:12.519Z,235.94313
2022-10-12T05:01:14.141Z,245.96078
2022-10-12T05:06:15.761Z,237.33333
2022-10-12T05:11:17.365Z,244.4878
2022-10-12T05:16:18.963Z,245.96078
2022-10-12T05:21:20.586Z,231.85047
2022-10-12T05:26:22.158Z,235.94313
2022-10-12T05:31:23.770Z,237.33333
2022-10-12T05:36:25.420Z,240.15385
2022-10-12T05:41:27.004Z,240.15385
2022-10-12T05:46:28.603Z,238.73684
2022-10-12T05:51:30.242Z,243.02913
2022-10-12T05:56:31.995Z,247.44828
2022-10-12T06:01:33.637Z,247.44828
2022-10-12T06:06:35.346Z,261.52577
2022-10-12T06:11:36.985Z,247.44828
2022-10-12T06:16:38.594Z,244.4878
2022-10-12T06:21:40.225Z,253.54774
2022-10-12T06:26:42.097Z,256.69036
2022-10-12T06:31:47.694Z,256.69036
2022-10-12T06:36:52.390Z,261.52577
2022-10-12T06:41:54.036Z,258.28571
2022-10-12T06:46:55.620Z,255.11111
2022-10-12T06:51:57.218Z,252
2022-10-12T06:56:58.948Z,268.21053
2022-10-12T07:02:00.656Z,268.21053
2022-10-12T07:07:02.386Z,252
2022-10-12T07:12:04.056Z,250.46766
2022-10-12T07:17:05.680Z,245.96078
2022-10-12T07:22:07.293Z,245.96078
2022-10-12T07:27:08.850Z,244.4878
2022-10-12T07:32:10.443Z,245.96078
2022-10-12T07:37:12.108Z,241.58454
2022-10-12T07:42:18.933Z,244.4878
2022-10-12T07:47:21.042Z,252
2022-10-12T07:52:22.650Z,247.44828
2022-10-12T07:57:24.337Z,244.4878
2022-10-12T08:02:26.006Z,247.44828
2022-10-12T08:07:27.578Z,258.28571
2022-10-12T08:12:29.214Z,253.54774
2022-10-12T08:17:30.820Z,255.11111
2022-10-12T08:22:32.434Z,245.96078
2022-10-12T08:27:34.028Z,245.96078
2022-10-12T08:32:35.616Z,247.44828
2022-10-12T08:37:37.525Z,248.9505
2022-10-12T08:42:39.301Z,258.28571
2022-10-12T08:47:41.464Z,250.46766
2022-10-12T08:52:43.452Z,237.33333
2022-10-12T08:57:49.117Z,238.73684
2022-10-12T09:02:51.722Z,240.15385
2022-10-12T09:07:53.304Z,250.46766
2022-10-12T09:12:54.895Z,247.44828
2022-10-12T09:17:56.466Z,250.46766
2022-10-12T09:22:58.074Z,261.52577
2022-10-12T09:27:59.677Z,250.46766
2022-10-12T09:33:01.500Z,248.9505
2022-10-12T09:38:03.084Z,258.28571
2022-10-12T09:43:04.814Z,268.21053
2022-10-12T09:48:06.472Z,269.92593
2022-10-12T09:53:08.082Z,276.97297
2022-10-12T09:58:09.715Z,264.83333
2022-10-12T10:03:11.318Z,273.41176
2022-10-12T10:08:12.893Z,271.65957
2022-10-12T10:13:14.481Z,275.1828
2022-10-12T10:18:16.111Z,263.17098
2022-10-12T10:23:17.707Z,264.83333
2022-10-12T10:28:19.293Z,258.28571
2022-10-12T10:33:20.938Z,258.28571
2022-10-12T10:38:22.541Z,266.51309
2022-10-12T10:43:24.249Z,261.52577
2022-10-12T10:48:25.832Z,258.28571
2022-10-12T10:53:27.446Z,259.89744
2022-10-12T10:58:29.026Z,258.28571
2022-10-12T11:03:30.597Z,252
2022-10-12T11:08:32.193Z,259.89744
2022-10-12T11:13:33.815Z,253.54774
2022-10-12T11:18:35.410Z,248.9505
2022-10-12T11:23:37.032Z,255.11111
2022-10-12T11:28:38.678Z,259.89744
2022-10-12T11:33:40.310Z,255.11111
2022-10-12T11:38:41.932Z,253.54774
2022-10-12T11:43:43.539Z,248.9505
2022-10-12T11:48:45.127Z,237.33333
2022-10-12T11:53:46.751Z,245.96078
2022-10-12T11:59:00.587Z,247.44828
2022-10-12T12:04:22.644Z,247.44828
2022-10-12T12:09:31.301Z,243.02913
2022-10-12T12:14:32.960Z,244.4878
2022-10-12T12:19:34.567Z,245.96078
2022-10-12T12:24:38.636Z,240.15385
2022-10-12T12:29:41.021Z,240.15385
2022-10-12T12:34:43.087Z,243.02913
2022-10-12T12:39:45.229Z,258.28571
2022-10-12T12:44:46.856Z,256.69036
2022-10-12T12:49:48.450Z,243.02913
2022-10-12T12:54:53.248Z,240.15385
2022-10-12T12:59:55.356Z,237.33333
2022-10-12T13:04:57.014Z,245.96078
2022-10-12T13:09:58.593Z,241.58454
2022-10-12T13:15:00.195Z,231.85047
2022-10-12T13:20:01.901Z,231.85047
2022-10-12T13:25:03.551Z,233.20188
2022-10-12T13:30:05.254Z,199.60166
2022-10-12T13:35:06.898Z,211.82609
2022-10-12T13:40:08.491Z,222.73303
2022-10-12T13:45:10.098Z,217.77778
2022-10-12T13:50:11.706Z,217.77778
2022-10-12T13:55:13.346Z,215.36564
2022-10-12T14:00:14.950Z,229.18519
2022-10-12T14:05:16.587Z,226.56881
2022-10-12T14:10:18.196Z,226.56881
2022-10-12T14:15:19.855Z,227.87097
2022-10-12T14:20:21.480Z,227.87097
2022-10-12T14:25:23.049Z,224
2022-10-12T14:30:24.609Z,227.87097
2022-10-12T14:35:26.235Z,227.87097
2022-10-12T14:40:27.849Z,231.85047
2022-10-12T14:45:29.420Z,234.56604
2022-10-12T14:50:31.050Z,234.56604
2022-10-12T14:55:32.662Z,230.51163
2022-10-12T15:00:34.353Z,227.87097
2022-10-12T15:05:36.013Z,230.51163
2022-10-12T15:10:37.587Z,231.85047
2022-10-12T15:15:39.161Z,235.94313
2022-10-12T15:20:43.231Z,234.56604
2022-10-12T15:25:48.584Z,245.96078
2022-10-12T15:31:15.764Z,240.15385
2022-10-12T15:36:18.569Z,241.58454
2022-10-12T15:41:20.135Z,255.11111
2022-10-12T15:46:21.722Z,248.9505
2022-10-12T15:51:23.330Z,259.89744
2022-10-12T15:56:24.935Z,259.89744
2022-10-12T16:01:26.615Z,253.54774
2022-10-12T16:06:28.230Z,261.52577
2022-10-12T16:11:29.843Z,256.69036
2022-10-12T16:16:31.364Z,268.21053
2022-10-12T16:21:32.997Z,264.83333
2022-10-12T16:26:34.572Z,261.52577
2022-10-12T16:31:36.259Z,269.92593
2022-10-12T16:36:37.926Z,264.83333
2022-10-12T16:41:39.526Z,276.97297
2022-10-12T16:46:41.122Z,268.21053
2022-10-12T16:51:42.810Z,278.78261
2022-10-12T16:56:44.434Z,268.21053
2022-10-12T17:01:46.019Z,282.46154
2022-10-12T17:06:47.633Z,268.21053
2022-10-12T17:11:49.230Z,264.83333
2022-10-12T17:16:50.973Z,269.92593
2022-10-12T17:21:52.550Z,269.92593
2022-10-12T17:26:54.312Z,290.06742
2022-10-12T17:31:55.872Z,298.02299
2022-10-12T17:36:57.470Z,292.0226
2022-10-12T17:41:59.102Z,290.06742
2022-10-12T17:47:00.737Z,278.78261
2022-10-12T17:52:02.328Z,290.06742
2022-10-12T17:57:03.998Z,300.06936
2022-10-12T18:02:09.389Z,280.61202
2022-10-12T18:07:11.324Z,290.06742
2022-10-12T18:12:12.909Z,271.65957
2022-10-12T18:17:14.549Z,269.92593
2022-10-12T18:22:16.402Z,268.21053
2022-10-12T18:27:18.200Z,259.89744
2022-10-12T18:32:20.217Z,263.17098
2022-10-12T18:37:22.013Z,266.51309
2022-10-12T18:42:23.772Z,264.83333
2022-10-12T18:47:25.382Z,261.52577
2022-10-12T18:52:27.025Z,271.65957
2022-10-12T18:57:31.216Z,266.51309
2022-10-12T19:02:34.522Z,261.52577
2022-10-12T19:07:36.141Z,268.21053
2022-10-12T19:12:40.152Z,261.52577
2022-10-12T19:17:45.393Z,256.69036
2022-10-12T19:22:46.988Z,258.28571
2022-10-12T19:27:48.565Z,276.97297
2022-10-12T19:32:50.210Z,263.17098
2022-10-12T19:37:51.857Z,256.69036
2022-10-12T19:42:53.416Z,250.46766
2022-10-12T19:47:55.018Z,247.44828
2022-10-12T19:52:56.649Z,264.83333
2022-10-12T19:57:58.436Z,259.89744
2022-10-12T20:03:00.027Z,253.54774
2022-10-12T20:08:01.780Z,259.89744
2022-10-12T20:13:03.648Z,271.65957
2022-10-12T20:18:05.251Z,259.89744
2022-10-12T20:23:06.842Z,275.1828
2022-10-12T20:28:08.462Z,268.21053
2022-10-12T20:33:10.099Z,282.46154
2022-10-12T20:38:11.696Z,269.92593
2022-10-12T20:43:13.317Z,276.97297
2022-10-12T20:48:14.913Z,284.33149
2022-10-12T20:53:17.492Z,284.33149
2022-10-12T20:58:19.040Z,266.51309
2022-10-12T21:03:20.669Z,282.46154
2022-10-12T21:08:22.279Z,276.97297
2022-10-12T21:13:23.959Z,284.33149
2022-10-12T21:18:25.586Z,286.22222
2022-10-12T21:23:27.185Z,273.41176
2022-10-12T21:28:28.805Z,269.92593
2022-10-12T21:33:30.432Z,258.28571
2022-10-12T21:38:32.067Z,273.41176
2022-10-12T21:43:33.706Z,296
2022-10-12T21:48:35.325Z,296
2022-10-12T21:53:36.960Z,253.54774
2022-10-12T21:58:38.557Z,308.49704
2022-10-12T22:03:40.114Z,269.92593
2022-10-12T22:08:41.703Z,255.11111
2022-10-12T22:13:43.337Z,306.35294
2022-10-12T22:18:44.914Z,300.06936
2022-10-12T22:23:46.503Z,250.46766
2022-10-12T22:28:48.451Z,208.37768
2022-10-12T22:33:50.060Z,255.11111
2022-10-12T22:38:51.653Z,247.44828
2022-10-12T22:43:53.373Z,282.46154
2022-10-12T22:48:54.985Z,268.21053
2022-10-12T22:53:56.584Z,256.69036
2022-10-12T22:58:58.225Z,258.28571
2022-10-12T23:03:59.839Z,258.28571
2022-10-12T23:09:01.498Z,259.89744
2022-10-12T23:14:03.093Z,227.87097
2022-10-12T23:19:04.728Z,234.56604
2022-10-12T23:24:06.318Z,227.87097
2022-10-12T23:29:07.935Z,210.66667
2022-10-12T23:34:09.535Z,206.12766
2022-10-12T23:39:11.114Z,190.4
2022-10-12T23:44:12.730Z,215.36564
2022-10-12T23:49:14.356Z,215.36564
2022-10-12T23:54:15.964Z,188.44444
2022-10-12T23:59:17.613Z,217.77778
